Time;durP1;ratioP1;P1;durP2;ratioP2;P2;SDS_P1;SDS_P2;PMS_P1;PMS_P2;Temp;Humidity;BMP_temperature;BMP_pressure;BME280_temperature;BME280_humidity;BME280_pressure;Samples;Min_cycle;Max_cycle;Signal;HPM_P1;HPM_P2
2022/03/06 00:00:51;;;;;;;7.60;5.80;;;3.60;99.90;;;;;;5083429;28;20458;-53
2022/03/06 00:03:18;;;;;;;15.53;7.97;;;3.60;99.90;;;;;;5083674;28;20833;-52
2022/03/06 00:05:45;;;;;;;8.07;5.00;;;3.60;99.90;;;;;;5083518;28;20465;-49
2022/03/06 00:08:15;;;;;;;16.10;5.47;;;3.60;99.90;;;;;;5083596;28;20465;-51
2022/03/06 00:10:43;;;;;;;8.33;5.40;;;3.60;99.90;;;;;;5083347;28;20442;-53
2022/03/06 00:13:09;;;;;;;8.43;6.03;;;3.60;99.90;;;;;;5083640;28;20537;-51
2022/03/06 00:15:36;;;;;;;8.93;4.90;;;3.50;99.90;;;;;;5083013;28;20918;-53
2022/03/06 00:18:03;;;;;;;7.63;4.67;;;3.60;99.90;;;;;;5086106;28;20490;-53
2022/03/06 00:20:30;;;;;;;8.30;5.63;;;3.60;99.90;;;;;;5088936;28;20520;-55
2022/03/06 00:22:56;;;;;;;10.20;4.83;;;3.60;99.90;;;;;;5089372;28;20466;-53
2022/03/06 00:25:23;;;;;;;7.20;5.10;;;3.50;99.90;;;;;;5086997;28;20484;-55
2022/03/06 00:27:51;;;;;;;7.47;4.93;;;3.50;99.90;;;;;;5084086;28;20829;-53
2022/03/06 00:30:18;;;;;;;8.57;5.27;;;3.60;99.90;;;;;;5083620;28;20539;-50
2022/03/06 00:32:44;;;;;;;7.37;5.10;;;3.60;99.90;;;;;;5083521;28;20449;-51
2022/03/06 00:35:11;;;;;;;14.53;5.77;;;3.60;99.90;;;;;;5083121;28;20836;-53
2022/03/06 00:37:38;;;;;;;10.07;5.40;;;3.70;99.90;;;;;;5082748;28;20442;-52
2022/03/06 00:40:07;;;;;;;11.30;6.17;;;3.70;99.90;;;;;;5082152;28;20465;-51
2022/03/06 00:42:34;;;;;;;6.90;4.67;;;3.70;99.90;;;;;;5085172;28;20508;-56
2022/03/06 00:45:03;;;;;;;8.27;5.47;;;3.70;99.90;;;;;;5086920;28;20438;-51
2022/03/06 00:47:30;;;;;;;7.90;4.80;;;3.70;99.90;;;;;;5083535;28;20470;-53
2022/03/06 00:49:57;;;;;;;6.97;4.10;;;3.60;99.90;;;;;;5082895;28;20442;-53
2022/03/06 00:52:24;;;;;;;6.70;4.30;;;3.60;99.90;;;;;;5083374;28;20465;-53
2022/03/06 00:54:51;;;;;;;8.40;5.20;;;3.70;99.90;;;;;;5082777;28;20478;-51
2022/03/06 00:57:17;;;;;;;10.63;5.40;;;3.70;99.90;;;;;;5082881;28;20583;-52
2022/03/06 00:59:44;;;;;;;10.00;4.30;;;3.60;99.90;;;;;;5081989;28;20446;-51
2022/03/06 01:02:12;;;;;;;8.27;4.63;;;3.60;99.90;;;;;;5082151;28;20780;-51
2022/03/06 01:04:41;;;;;;;9.20;4.43;;;3.60;99.90;;;;;;5084050;28;20488;-55
2022/03/06 01:07:08;;;;;;;6.13;3.90;;;3.60;99.90;;;;;;5086093;28;20474;-50
2022/03/06 01:09:34;;;;;;;4.23;3.83;;;3.60;99.90;;;;;;5082811;28;20462;-51
2022/03/06 01:12:01;;;;;;;5.93;5.37;;;3.60;99.90;;;;;;5082335;28;20431;-54
2022/03/06 01:14:28;;;;;;;8.50;4.97;;;3.60;99.90;;;;;;5081626;28;20459;-47
2022/03/06 01:16:54;;;;;;;7.00;4.23;;;3.60;99.90;;;;;;5081923;28;20442;-50
2022/03/06 01:19:22;;;;;;;6.17;4.80;;;3.60;99.90;;;;;;5082171;28;20446;-53
2022/03/06 01:21:49;;;;;;;6.20;4.77;;;3.60;99.90;;;;;;5082154;28;20842;-53
2022/03/06 01:24:16;;;;;;;6.53;4.87;;;3.60;99.90;;;;;;5082739;28;20458;-51
2022/03/06 01:26:43;;;;;;;9.03;4.47;;;3.60;99.90;;;;;;5082668;28;20478;-55
2022/03/06 01:29:10;;;;;;;6.00;4.17;;;3.50;99.90;;;;;;5082473;28;20507;-49
2022/03/06 01:31:37;;;;;;;10.23;5.20;;;3.50;99.90;;;;;;5085092;28;20438;-51
2022/03/06 01:34:04;;;;;;;10.77;5.20;;;3.50;99.90;;;;;;5086666;28;20470;-57
2022/03/06 01:36:33;;;;;;;8.90;4.40;;;3.50;99.90;;;;;;5082694;28;20438;-56
2022/03/06 01:39:00;;;;;;;12.23;4.80;;;3.50;99.90;;;;;;5082246;28;20462;-48
2022/03/06 01:41:27;;;;;;;8.37;5.57;;;3.50;99.90;;;;;;5081194;28;20462;-53
2022/03/06 01:43:53;;;;;;;9.20;5.03;;;3.50;99.90;;;;;;5082112;28;20482;-49
2022/03/06 01:46:22;;;;;;;5.03;4.23;;;3.50;99.90;;;;;;5081583;28;20478;-50
2022/03/06 01:48:49;;;;;;;6.20;4.37;;;3.40;99.90;;;;;;5081748;28;20458;-56
2022/03/06 01:51:15;;;;;;;9.70;6.43;;;3.50;99.90;;;;;;5080862;28;20454;-55
2022/03/06 01:53:45;;;;;;;8.63;4.70;;;3.50;99.90;;;;;;5081635;28;20535;-50
2022/03/06 01:56:14;;;;;;;5.70;4.30;;;3.50;99.90;;;;;;5082237;28;20526;-50
2022/03/06 01:58:41;;;;;;;10.63;5.40;;;3.50;99.90;;;;;;5086247;28;20474;-50
2022/03/06 02:01:08;;;;;;;8.57;5.00;;;3.50;99.90;;;;;;5085411;28;20450;-52
2022/03/06 02:03:35;;;;;;;8.70;5.37;;;3.50;99.90;;;;;;5081597;28;21029;-55
2022/03/06 02:06:04;;;;;;;9.47;6.17;;;3.40;99.90;;;;;;5081715;28;20561;-54
2022/03/06 02:08:34;;;;;;;10.13;5.30;;;3.40;99.90;;;;;;5082486;28;20447;-48
2022/03/06 02:11:03;;;;;;;9.90;6.70;;;3.40;99.90;;;;;;5081979;28;20463;-52
2022/03/06 02:13:29;;;;;;;8.60;6.83;;;3.30;99.90;;;;;;5081800;28;20514;-55
2022/03/06 02:16:02;;;;;;;7.67;5.70;;;3.30;99.90;;;;;;5081858;28;20447;-55
2022/03/06 02:18:29;;;;;;;8.60;6.23;;;3.30;99.90;;;;;;5081701;28;20423;-56
2022/03/06 02:20:56;;;;;;;8.47;6.90;;;3.30;99.90;;;;;;5080986;28;21136;-52
2022/03/06 02:23:24;;;;;;;8.97;5.50;;;3.30;99.90;;;;;;5080964;28;20474;-52
2022/03/06 02:25:51;;;;;;;12.57;7.10;;;3.30;99.90;;;;;;5085267;28;20558;-51
2022/03/06 02:28:17;;;;;;;8.43;6.13;;;3.30;99.90;;;;;;5086059;28;20480;-49
2022/03/06 02:30:44;;;;;;;8.10;6.83;;;3.30;99.90;;;;;;5081840;28;20451;-51
2022/03/06 02:33:13;;;;;;;9.87;5.83;;;3.30;99.90;;;;;;5082069;28;20458;-52
2022/03/06 02:35:40;;;;;;;12.90;7.10;;;3.30;99.90;;;;;;5081636;28;20525;-53
2022/03/06 02:38:08;;;;;;;11.60;4.80;;;4.30;99.90;;;;;;5081944;28;20450;-54
2022/03/06 02:40:41;;;;;;;8.57;7.13;;;3.30;99.90;;;;;;5082735;28;20454;-52
2022/03/06 02:43:09;;;;;;;7.07;5.60;;;3.30;99.90;;;;;;5082905;28;20467;-54
2022/03/06 02:45:38;;;;;;;11.93;6.67;;;3.20;99.90;;;;;;5081499;28;20470;-53
2022/03/06 02:48:05;;;;;;;9.50;5.53;;;3.20;99.90;;;;;;5081033;28;20445;-50
2022/03/06 02:50:33;;;;;;;6.23;5.50;;;3.20;99.90;;;;;;5082061;28;20887;-53
2022/03/06 02:53:02;;;;;;;8.83;4.90;;;3.30;99.90;;;;;;5086016;28;20459;-49
2022/03/06 02:55:29;;;;;;;7.30;5.97;;;3.20;99.90;;;;;;5083003;28;20447;-55
2022/03/06 02:57:58;;;;;;;7.70;6.37;;;3.20;99.90;;;;;;5081549;28;20438;-53
2022/03/06 03:00:27;;;;;;;11.37;5.60;;;3.20;99.90;;;;;;5080571;28;20500;-47
2022/03/06 03:02:54;;;;;;;11.93;6.40;;;3.20;99.90;;;;;;5080004;28;20486;-53
2022/03/06 03:05:21;;;;;;;11.47;5.37;;;3.30;99.90;;;;;;5081360;28;20932;-55
2022/03/06 03:07:49;;;;;;;9.50;4.70;;;3.20;99.90;;;;;;5084465;28;20473;-54
2022/03/06 03:10:19;;;;;;;5.33;4.63;;;3.20;99.90;;;;;;5090260;28;20454;-43
2022/03/06 03:12:46;;;;;;;6.83;5.23;;;3.30;99.90;;;;;;5089331;28;20497;-55
2022/03/06 03:15:15;;;;;;;6.10;3.87;;;3.20;99.90;;;;;;5089904;28;20896;-55
2022/03/06 03:17:42;;;;;;;7.73;4.40;;;3.20;99.80;;;;;;5088998;28;20454;-55
2022/03/06 03:20:10;;;;;;;4.87;3.30;;;3.20;99.90;;;;;;5089444;28;20522;-52
2022/03/06 03:22:37;;;;;;;6.13;3.50;;;3.20;99.90;;;;;;5088736;28;20470;-49
2022/03/06 03:25:04;;;;;;;6.77;4.40;;;3.10;99.80;;;;;;5089161;28;20446;-52
2022/03/06 03:27:31;;;;;;;5.33;3.40;;;3.20;99.80;;;;;;5088846;28;20439;-52
2022/03/06 03:29:58;;;;;;;8.40;4.87;;;3.10;99.80;;;;;;5089287;28;20452;-49
2022/03/06 03:32:26;;;;;;;7.90;4.13;;;3.20;99.90;;;;;;5088667;28;20471;-54
2022/03/06 03:34:53;;;;;;;9.87;4.40;;;3.10;99.80;;;;;;5089129;28;20472;-48
2022/03/06 03:37:19;;;;;;;5.63;3.80;;;3.10;99.70;;;;;;5089635;28;20439;-44
2022/03/06 03:39:46;;;;;;;6.47;4.17;;;3.10;99.90;;;;;;5089218;28;20462;-50
2022/03/06 03:42:13;;;;;;;6.90;4.43;;;3.10;99.90;;;;;;5088705;28;20423;-54
2022/03/06 03:44:40;;;;;;;7.93;4.03;;;3.10;99.90;;;;;;5089554;28;20446;-53
2022/03/06 03:47:07;;;;;;;7.63;3.50;;;3.10;99.90;;;;;;5089263;28;20465;-46
2022/03/06 03:49:35;;;;;;;4.43;3.87;;;3.10;99.90;;;;;;5089398;28;20499;-53
2022/03/06 03:52:02;;;;;;;6.17;3.80;;;3.10;99.90;;;;;;5089045;28;20540;-44
2022/03/06 03:54:29;;;;;;;5.30;3.00;;;3.00;99.90;;;;;;5089604;28;20899;-50
2022/03/06 03:56:55;;;;;;;4.10;3.27;;;3.00;99.90;;;;;;5089579;28;20435;-51
2022/03/06 03:59:22;;;;;;;8.13;3.60;;;3.00;99.90;;;;;;5089305;28;20466;-52
2022/03/06 04:01:49;;;;;;;5.33;3.60;;;3.00;99.90;;;;;;5089857;28;20476;-52
2022/03/06 04:04:15;;;;;;;8.03;4.77;;;3.00;99.90;;;;;;5090060;28;20475;-54
2022/03/06 04:06:43;;;;;;;6.33;4.37;;;2.90;99.90;;;;;;5089929;28;20442;-52
2022/03/06 04:09:10;;;;;;;8.97;3.30;;;3.00;99.90;;;;;;5089420;28;20458;-52
2022/03/06 04:11:37;;;;;;;5.23;3.10;;;3.00;99.90;;;;;;5089619;28;21001;-49
2022/03/06 04:14:03;;;;;;;4.53;3.03;;;3.00;99.90;;;;;;5089622;28;20932;-51
2022/03/06 04:16:30;;;;;;;5.87;3.40;;;3.00;99.90;;;;;;5089587;28;20990;-52
2022/03/06 04:18:56;;;;;;;5.70;3.60;;;2.90;99.60;;;;;;5089181;28;20524;-54
2022/03/06 04:21:26;;;;;;;3.70;2.30;;;3.00;99.40;;;;;;5088543;28;21057;-53
2022/03/06 04:23:54;;;;;;;6.93;3.53;;;2.90;98.90;;;;;;5089103;28;20474;-52
2022/03/06 04:26:21;;;;;;;7.17;3.40;;;3.00;98.50;;;;;;5089363;28;20936;-47
2022/03/06 04:28:48;;;;;;;5.67;2.83;;;3.00;98.10;;;;;;5088505;28;20453;-54
2022/03/06 04:31:15;;;;;;;6.17;4.33;;;2.90;98.00;;;;;;5088542;28;20532;-50
2022/03/06 04:33:42;;;;;;;9.97;3.97;;;2.90;97.50;;;;;;5089398;28;20434;-52
2022/03/06 04:36:08;;;;;;;7.20;3.97;;;2.90;96.80;;;;;;5088883;28;20450;-49
2022/03/06 04:38:35;;;;;;;5.77;3.70;;;2.90;96.50;;;;;;5090178;28;20502;-48
2022/03/06 04:41:03;;;;;;;7.10;4.70;;;2.90;95.40;;;;;;5089463;28;20453;-50
2022/03/06 04:43:30;;;;;;;5.57;2.73;;;2.90;95.00;;;;;;5090591;28;20474;-52
2022/03/06 04:45:57;;;;;;;5.53;3.17;;;2.80;94.80;;;;;;5093472;28;20500;-53
2022/03/06 04:48:23;;;;;;;7.60;4.00;;;2.80;94.50;;;;;;5093786;28;20434;-48
2022/03/06 04:50:50;;;;;;;5.70;3.67;;;2.80;94.40;;;;;;5093719;28;20466;-53
2022/03/06 04:53:17;;;;;;;5.27;3.33;;;2.90;94.70;;;;;;5093291;28;20484;-48
2022/03/06 04:55:44;;;;;;;14.17;3.60;;;2.90;94.70;;;;;;5093285;28;20439;-50
2022/03/06 04:58:12;;;;;;;3.47;3.13;;;2.90;94.50;;;;;;5093337;28;20527;-46
2022/03/06 05:00:39;;;;;;;7.50;3.97;;;2.90;94.50;;;;;;5092947;28;20473;-51
2022/03/06 05:03:06;;;;;;;4.97;3.80;;;2.90;94.30;;;;;;5093165;28;20950;-55
2022/03/06 05:05:33;;;;;;;7.23;4.43;;;2.90;94.50;;;;;;5093534;28;20442;-49
2022/03/06 05:08:02;;;;;;;6.10;3.70;;;2.90;94.70;;;;;;5093174;28;20458;-56
2022/03/06 05:10:29;;;;;;;6.00;3.73;;;3.00;94.50;;;;;;5092842;28;20448;-47
2022/03/06 05:12:55;;;;;;;10.00;4.23;;;2.90;94.50;;;;;;5092630;28;20427;-47
2022/03/06 05:15:23;;;;;;;5.53;3.47;;;2.90;94.50;;;;;;5092520;28;20442;-50
2022/03/06 05:17:50;;;;;;;7.80;4.27;;;2.90;94.40;;;;;;5093237;28;20459;-55
2022/03/06 05:20:17;;;;;;;8.00;3.87;;;3.00;94.50;;;;;;5092596;28;20438;-55
2022/03/06 05:22:44;;;;;;;7.50;4.23;;;3.00;94.50;;;;;;5092999;28;20446;-51
2022/03/06 05:25:11;;;;;;;5.03;4.60;;;3.00;94.20;;;;;;5093082;28;20498;-53
2022/03/06 05:27:38;;;;;;;10.70;4.20;;;3.00;93.90;;;;;;5092897;28;20461;-48
2022/03/06 05:30:06;;;;;;;5.80;3.80;;;3.00;93.40;;;;;;5092847;28;20465;-49
2022/03/06 05:32:34;;;;;;;7.00;3.77;;;3.00;93.60;;;;;;5091295;28;20486;-52
2022/03/06 05:35:01;;;;;;;9.50;4.33;;;3.00;93.70;;;;;;5091660;28;20502;-52
2022/03/06 05:37:29;;;;;;;12.13;4.37;;;3.00;93.60;;;;;;5092191;28;20462;-51
2022/03/06 05:39:56;;;;;;;6.57;4.03;;;3.00;93.70;;;;;;5092337;28;20458;-55
2022/03/06 05:42:22;;;;;;;5.30;4.10;;;3.00;93.70;;;;;;5092399;28;20434;-49
2022/03/06 05:44:49;;;;;;;6.33;4.47;;;3.00;93.40;;;;;;5091437;28;20490;-52
2022/03/06 05:47:16;;;;;;;6.37;4.90;;;3.00;93.50;;;;;;5091503;28;20496;-50
2022/03/06 05:49:44;;;;;;;8.50;4.70;;;3.00;93.70;;;;;;5092114;28;20492;-54
2022/03/06 05:52:10;;;;;;;5.77;4.30;;;3.00;93.70;;;;;;5092039;28;20435;-46
2022/03/06 05:54:37;;;;;;;5.03;4.63;;;3.00;93.60;;;;;;5091128;28;20524;-51
2022/03/06 05:57:05;;;;;;;7.90;5.03;;;3.00;92.80;;;;;;5091939;28;20907;-54
2022/03/06 05:59:31;;;;;;;8.07;4.40;;;3.00;92.60;;;;;;5091164;28;20458;-54
2022/03/06 06:01:58;;;;;;;8.70;5.10;;;3.00;92.60;;;;;;5091310;28;20523;-54
2022/03/06 06:04:25;;;;;;;7.47;4.20;;;3.00;92.50;;;;;;5091824;28;20527;-52
2022/03/06 06:06:53;;;;;;;7.53;4.23;;;3.00;92.40;;;;;;5091341;28;20491;-49
2022/03/06 06:09:19;;;;;;;5.40;4.90;;;3.00;92.60;;;;;;5091703;28;20465;-53
2022/03/06 06:11:46;;;;;;;6.40;3.80;;;3.00;92.60;;;;;;5091348;28;20448;-47
2022/03/06 06:14:13;;;;;;;11.20;5.03;;;3.00;93.20;;;;;;5090956;28;20459;-52
2022/03/06 06:16:40;;;;;;;7.50;5.30;;;3.10;93.10;;;;;;5091004;28;20462;-52
2022/03/06 06:19:06;;;;;;;7.97;6.37;;;3.10;92.70;;;;;;5090784;28;20466;-52
2022/03/06 06:21:33;;;;;;;4.80;4.17;;;3.10;92.70;;;;;;5090977;28;20439;-51
2022/03/06 06:24:01;;;;;;;5.60;4.37;;;3.10;91.90;;;;;;5090566;28;20474;-52
2022/03/06 06:26:28;;;;;;;4.20;3.80;;;3.20;91.90;;;;;;5090715;28;20480;-50
2022/03/06 06:28:56;;;;;;;6.80;5.27;;;3.20;91.80;;;;;;5090895;28;20472;-48
2022/03/06 06:31:23;;;;;;;10.43;4.93;;;3.20;92.40;;;;;;5090566;28;20491;-46
2022/03/06 06:33:50;;;;;;;7.17;5.60;;;3.20;91.70;;;;;;5091011;28;20459;-54
2022/03/06 06:36:17;;;;;;;7.83;4.87;;;3.20;91.20;;;;;;5089756;28;20496;-53
2022/03/06 06:38:44;;;;;;;7.00;5.10;;;3.20;91.10;;;;;;5093084;28;20525;-47
2022/03/06 06:41:12;;;;;;;6.53;5.20;;;3.30;91.50;;;;;;5095843;28;20486;-48
2022/03/06 06:43:42;;;;;;;6.77;4.67;;;3.30;91.40;;;;;;5096703;28;20451;-47
2022/03/06 06:46:09;;;;;;;8.30;5.63;;;3.30;92.20;;;;;;5096088;28;20423;-50
2022/03/06 06:48:36;;;;;;;7.77;3.93;;;3.30;91.60;;;;;;5096880;28;20453;-49
2022/03/06 06:51:03;;;;;;;5.10;4.00;;;3.30;91.30;;;;;;5096212;28;20439;-43
2022/03/06 06:53:31;;;;;;;4.80;4.33;;;3.30;90.60;;;;;;5095686;28;20503;-47
2022/03/06 06:55:58;;;;;;;6.70;4.17;;;3.30;90.50;;;;;;5095968;28;20433;-55
2022/03/06 06:58:28;;;;;;;4.83;3.97;;;3.30;90.30;;;;;;5095378;28;20454;-49
2022/03/06 07:00:54;;;;;;;4.33;3.37;;;3.40;90.20;;;;;;5096025;28;20447;-50
2022/03/06 07:03:21;;;;;;;7.73;4.53;;;3.40;90.50;;;;;;5095949;28;20435;-47
2022/03/06 07:05:48;;;;;;;5.50;3.40;;;3.50;90.60;;;;;;5095857;28;20422;-47
2022/03/06 07:08:15;;;;;;;7.40;4.57;;;3.40;90.70;;;;;;5095721;28;20470;-48
2022/03/06 07:10:42;;;;;;;4.63;3.97;;;3.40;90.70;;;;;;5095515;28;20764;-49
2022/03/06 07:13:10;;;;;;;5.23;4.20;;;3.40;91.20;;;;;;5095080;28;20453;-55
2022/03/06 07:15:38;;;;;;;6.80;3.67;;;3.40;90.90;;;;;;5095223;28;20493;-48
2022/03/06 07:18:05;;;;;;;4.30;3.70;;;3.50;90.90;;;;;;5089230;28;20629;-55
2022/03/06 07:20:33;;;;;;;7.03;4.57;;;3.50;91.10;;;;;;5089115;28;20462;-53
2022/03/06 07:23:00;;;;;;;6.97;4.03;;;3.50;91.30;;;;;;5088881;28;20466;-54
2022/03/06 07:25:27;;;;;;;3.70;3.40;;;3.50;90.40;;;;;;5089281;28;20486;-51
2022/03/06 07:27:54;;;;;;;4.60;3.60;;;3.50;88.70;;;;;;5088523;28;20484;-56
2022/03/06 07:30:21;;;;;;;5.27;3.77;;;3.40;87.60;;;;;;5089540;28;20531;-50
2022/03/06 07:32:51;;;;;;;6.53;4.47;;;3.40;87.50;;;;;;5089600;28;20488;-50
2022/03/06 07:35:20;;;;;;;6.23;4.33;;;3.90;89.40;;;;;;5088981;28;20475;-54
2022/03/06 07:37:47;;;;;;;6.13;4.57;;;3.50;89.80;;;;;;5089034;28;20446;-50
2022/03/06 07:40:15;;;;;;;6.60;4.90;;;3.60;90.40;;;;;;5089138;28;20470;-49
2022/03/06 07:42:42;;;;;;;6.00;4.50;;;3.60;90.00;;;;;;5062473;28;20448;-47
2022/03/06 07:45:10;;;;;;;5.60;4.23;;;3.60;89.80;;;;;;5065027;28;20475;-48
2022/03/06 07:47:37;;;;;;;4.93;3.67;;;3.70;88.90;;;;;;5075148;28;20443;-51
2022/03/06 07:50:07;;;;;;;4.90;4.40;;;3.70;87.90;;;;;;5075016;28;20454;-55
2022/03/06 07:52:34;;;;;;;4.40;3.90;;;3.70;88.70;;;;;;5075035;28;20454;-51
2022/03/06 07:55:01;;;;;;;6.90;5.50;;;3.70;88.20;;;;;;5075648;28;20415;-48
2022/03/06 07:57:27;;;;;;;5.93;5.30;;;3.70;89.60;;;;;;5075409;28;20477;-54
2022/03/06 07:59:54;;;;;;;7.03;5.50;;;3.70;89.70;;;;;;5076042;28;20466;-40
2022/03/06 08:02:21;;;;;;;7.43;5.37;;;3.80;89.90;;;;;;5076042;28;20530;-55
2022/03/06 08:04:47;;;;;;;7.23;5.87;;;3.80;90.00;;;;;;5076008;28;20502;-49
2022/03/06 08:07:15;;;;;;;9.50;6.33;;;3.80;90.20;;;;;;5076599;28;20466;-53
2022/03/06 08:09:42;;;;;;;6.17;5.07;;;3.80;90.30;;;;;;5076543;28;20427;-56
2022/03/06 08:12:09;;;;;;;7.07;5.83;;;3.80;90.70;;;;;;5089050;28;20458;-51
2022/03/06 08:14:36;;;;;;;8.63;6.60;;;3.80;90.70;;;;;;5096191;28;20422;-54
2022/03/06 08:17:03;;;;;;;7.53;6.73;;;3.80;91.10;;;;;;5096186;28;20443;-52
2022/03/06 08:19:30;;;;;;;11.00;7.33;;;3.80;91.30;;;;;;5099616;28;20451;-53
2022/03/06 08:21:56;;;;;;;9.67;6.50;;;3.70;91.40;;;;;;5099604;28;20454;-49
2022/03/06 08:24:25;;;;;;;7.80;6.47;;;3.80;91.80;;;;;;5099811;28;20470;-49
2022/03/06 08:26:51;;;;;;;7.87;5.70;;;3.70;92.00;;;;;;5099419;28;20480;-55
2022/03/06 08:29:18;;;;;;;8.67;7.20;;;3.70;92.30;;;;;;5099642;28;20430;-54
2022/03/06 08:31:45;;;;;;;7.57;6.20;;;3.60;92.40;;;;;;5099445;28;20467;-51
2022/03/06 08:34:11;;;;;;;7.67;6.33;;;3.60;92.80;;;;;;5099554;28;20406;-54
2022/03/06 08:36:38;;;;;;;7.73;5.60;;;3.60;92.90;;;;;;5098961;28;20446;-47
2022/03/06 08:39:05;;;;;;;10.17;7.27;;;3.60;93.00;;;;;;5099074;28;20419;-46
2022/03/06 08:41:35;;;;;;;12.90;7.63;;;3.60;93.40;;;;;;5098994;28;20454;-46
2022/03/06 08:44:01;;;;;;;7.70;6.87;;;3.60;93.50;;;;;;5098956;28;20462;-48
2022/03/06 08:46:28;;;;;;;7.63;5.67;;;3.50;93.90;;;;;;5098877;28;20480;-53
2022/03/06 08:48:55;;;;;;;10.00;6.27;;;3.60;94.10;;;;;;5098649;28;20442;-51
2022/03/06 08:51:22;;;;;;;7.87;6.07;;;3.50;94.40;;;;;;5098647;28;20468;-50
2022/03/06 08:53:48;;;;;;;8.00;6.33;;;3.60;94.70;;;;;;5098463;28;20458;-46
2022/03/06 08:56:15;;;;;;;6.90;4.83;;;3.60;95.20;;;;;;5098534;28;20468;-45
2022/03/06 08:58:43;;;;;;;8.47;6.13;;;3.60;95.50;;;;;;5098454;28;20446;-51
2022/03/06 09:01:10;;;;;;;7.57;5.27;;;3.60;95.60;;;;;;5098412;28;20458;-45
2022/03/06 09:03:37;;;;;;;6.07;4.60;;;3.60;95.50;;;;;;5098095;28;20466;-49
2022/03/06 09:06:04;;;;;;;6.87;5.20;;;3.70;95.90;;;;;;5098449;28;20462;-50
2022/03/06 09:08:30;;;;;;;6.07;5.13;;;3.70;96.00;;;;;;5097814;28;20474;-51
2022/03/06 09:10:57;;;;;;;6.10;5.50;;;3.70;96.20;;;;;;5098230;28;20442;-58
2022/03/06 09:13:25;;;;;;;9.47;4.80;;;3.80;96.30;;;;;;5097670;28;20493;-60
2022/03/06 09:15:53;;;;;;;7.30;4.27;;;3.80;96.40;;;;;;5097960;28;20442;-60
2022/03/06 09:18:21;;;;;;;7.90;5.80;;;3.90;96.40;;;;;;5097728;28;20463;-59
2022/03/06 09:20:50;;;;;;;5.90;5.27;;;3.80;96.30;;;;;;5097709;28;20919;-59
2022/03/06 09:23:21;;;;;;;7.60;5.57;;;3.80;96.30;;;;;;5097875;28;20485;-59
2022/03/06 09:25:48;;;;;;;5.63;5.13;;;3.80;96.20;;;;;;5097919;28;20508;-59
2022/03/06 09:28:17;;;;;;;5.87;4.90;;;3.90;96.30;;;;;;5097423;28;20522;-59
2022/03/06 09:30:44;;;;;;;5.83;4.43;;;3.90;96.50;;;;;;5096746;28;20422;-59
2022/03/06 09:33:12;;;;;;;5.23;4.10;;;3.90;96.50;;;;;;5097818;28;20434;-59
2022/03/06 09:35:39;;;;;;;7.90;5.47;;;3.90;96.20;;;;;;5097430;28;20450;-61
2022/03/06 09:38:05;;;;;;;5.80;5.20;;;3.90;96.20;;;;;;5097936;28;20446;-59
2022/03/06 09:40:32;;;;;;;8.13;4.33;;;3.90;96.10;;;;;;5097636;28;20433;-55
2022/03/06 09:43:02;;;;;;;7.57;4.87;;;3.90;96.30;;;;;;5097358;28;20473;-58
2022/03/06 09:45:33;;;;;;;6.00;5.23;;;3.90;96.50;;;;;;5097563;28;20482;-59
2022/03/06 09:48:00;;;;;;;7.53;3.93;;;3.90;96.40;;;;;;5098180;28;20423;-57
2022/03/06 09:50:33;;;;;;;7.77;5.53;;;3.90;96.50;;;;;;5097985;28;20454;-57
2022/03/06 09:53:00;;;;;;;7.60;5.47;;;4.00;96.40;;;;;;5097452;28;20434;-59
2022/03/06 09:55:28;;;;;;;6.43;5.03;;;4.10;96.30;;;;;;5097435;28;20481;-60
2022/03/06 09:57:57;;;;;;;5.53;4.80;;;4.10;96.10;;;;;;5097322;28;20450;-57
2022/03/06 10:00:24;;;;;;;11.10;5.13;;;4.20;95.30;;;;;;5097274;28;20466;-60
2022/03/06 10:02:54;;;;;;;7.90;4.93;;;4.20;94.60;;;;;;5097031;28;20445;-62
2022/03/06 10:05:34;;;;;;;5.77;5.20;;;4.20;94.60;;;;;;5097620;28;20489;-59
2022/03/06 10:08:21;;;;;;;5.60;4.43;;;4.30;94.50;;;;;;5097483;28;20482;-61
2022/03/06 10:10:50;;;;;;;17.87;9.23;;;4.30;94.50;;;;;;5096850;28;20493;-58
2022/03/06 10:13:26;;;;;;;9.00;4.70;;;4.40;94.40;;;;;;5096729;28;20888;-58
2022/03/06 10:16:06;;;;;;;8.00;4.43;;;4.40;93.70;;;;;;5097008;28;20458;-60
2022/03/06 10:18:35;;;;;;;6.30;5.07;;;4.50;93.50;;;;;;5097048;28;20423;-59
2022/03/06 10:21:10;;;;;;;4.67;4.03;;;4.50;93.30;;;;;;5096501;28;20455;-59
2022/03/06 10:23:37;;;;;;;7.70;4.73;;;4.40;93.30;;;;;;5096902;28;20493;-60
2022/03/06 10:26:06;;;;;;;6.10;4.03;;;4.50;93.90;;;;;;5096584;28;20500;-58
2022/03/06 10:28:42;;;;;;;7.87;4.50;;;4.50;93.20;;;;;;5096459;28;20435;-58
2022/03/06 10:31:09;;;;;;;6.37;4.13;;;4.50;92.70;;;;;;5097245;28;20446;-60
2022/03/06 10:33:36;;;;;;;5.93;4.40;;;4.50;92.90;;;;;;5096318;28;20438;-59
2022/03/06 10:36:07;;;;;;;11.37;5.20;;;4.50;92.50;;;;;;5096406;28;20454;-59
2022/03/06 10:38:35;;;;;;;7.90;4.83;;;4.50;92.50;;;;;;5096684;28;20457;-59
2022/03/06 10:41:03;;;;;;;6.63;3.33;;;4.50;92.40;;;;;;5095696;28;20529;-60
2022/03/06 10:43:32;;;;;;;5.53;3.73;;;4.50;91.70;;;;;;5095584;28;20454;-58
2022/03/06 10:46:07;;;;;;;6.83;5.57;;;4.60;91.20;;;;;;5096497;28;20474;-58
2022/03/06 10:48:34;;;;;;;4.37;4.00;;;4.60;91.20;;;;;;5096018;28;20407;-61
2022/03/06 10:51:01;;;;;;;4.40;3.47;;;4.60;91.00;;;;;;5096223;28;20462;-58
2022/03/06 10:53:30;;;;;;;5.70;4.50;;;4.60;91.10;;;;;;5096161;28;20481;-59
2022/03/06 10:56:07;;;;;;;6.40;4.67;;;4.60;90.90;;;;;;5095839;28;20517;-59
2022/03/06 10:58:36;;;;;;;7.27;4.17;;;4.60;91.40;;;;;;5096253;28;20461;-61
2022/03/06 11:01:05;;;;;;;9.30;4.90;;;4.60;90.80;;;;;;5095638;28;20450;-60
2022/03/06 11:03:34;;;;;;;12.03;4.77;;;4.60;90.20;;;;;;5095738;28;20458;-60
2022/03/06 11:06:02;;;;;;;4.23;3.83;;;4.60;90.30;;;;;;5095586;28;20481;-59
2022/03/06 11:08:30;;;;;;;4.20;3.83;;;4.60;90.40;;;;;;5095434;28;20439;-57
2022/03/06 11:10:57;;;;;;;4.90;4.40;;;4.60;90.00;;;;;;5095898;28;20435;-58
2022/03/06 11:13:24;;;;;;;6.80;4.40;;;4.60;89.60;;;;;;5095219;28;20422;-59
2022/03/06 11:15:51;;;;;;;5.10;4.67;;;4.70;88.90;;;;;;5096076;28;20449;-57
2022/03/06 11:18:19;;;;;;;7.87;4.37;;;4.70;88.70;;;;;;5094659;22;20495;-59
2022/03/06 11:20:46;;;;;;;8.43;5.67;;;4.70;88.10;;;;;;5055081;28;20429;-57
2022/03/06 11:23:22;;;;;;;5.63;5.10;;;4.70;86.90;;;;;;5054470;28;20487;-53
2022/03/06 11:26:06;;;;;;;7.83;5.17;;;4.60;86.60;;;;;;5054507;28;20529;-56
2022/03/06 11:28:39;;;;;;;6.00;5.23;;;4.60;85.00;;;;;;5054636;28;20507;-55
2022/03/06 11:31:06;;;;;;;6.47;4.03;;;4.60;85.10;;;;;;5054448;28;20432;-54
2022/03/06 11:33:34;;;;;;;5.77;4.30;;;4.60;85.50;;;;;;5054164;28;20468;-54
2022/03/06 11:36:18;;;;;;;5.33;4.77;;;4.60;85.20;;;;;;5054070;28;20428;-54
2022/03/06 11:38:48;;;;;;;6.77;5.20;;;4.60;85.50;;;;;;5053937;28;20468;-56
2022/03/06 11:41:16;;;;;;;8.17;4.77;;;4.70;84.20;;;;;;5054213;28;20512;-53
2022/03/06 11:43:46;;;;;;;5.83;4.53;;;4.80;82.70;;;;;;5053990;28;20467;-52
2022/03/06 11:46:17;;;;;;;5.20;4.70;;;4.80;82.50;;;;;;5053701;28;20468;-53
2022/03/06 11:49:10;;;;;;;8.33;4.77;;;4.80;82.80;;;;;;5054922;28;20483;-52
2022/03/06 11:51:45;;;;;;;5.13;4.17;;;4.80;82.10;;;;;;5054681;28;20412;-60
2022/03/06 11:54:14;;;;;;;7.53;4.10;;;4.80;81.90;;;;;;5054139;28;20494;-55
2022/03/06 11:56:56;;;;;;;4.23;3.80;;;4.90;81.30;;;;;;5055080;28;20444;-60
2022/03/06 11:59:46;;;;;;;5.97;5.37;;;4.90;79.70;;;;;;5054200;28;20454;-59
2022/03/06 12:02:22;;;;;;;4.93;4.53;;;4.80;79.20;;;;;;5054325;28;20456;-54
2022/03/06 12:04:56;;;;;;;4.70;4.20;;;4.80;78.40;;;;;;5053878;28;20464;-61
2022/03/06 12:07:25;;;;;;;4.80;4.40;;;4.90;78.10;;;;;;5053569;28;20463;-55
2022/03/06 12:09:54;;;;;;;5.27;4.77;;;4.80;77.00;;;;;;5053901;28;20440;-56
2022/03/06 12:12:23;;;;;;;6.00;4.40;;;4.80;77.40;;;;;;5054604;28;20451;-56
2022/03/06 12:14:52;;;;;;;4.53;3.73;;;5.00;78.70;;;;;;5054521;28;20482;-60
2022/03/06 12:17:43;;;;;;;6.27;4.53;;;5.10;78.10;;;;;;5054079;28;20503;-55
2022/03/06 12:20:25;;;;;;;6.00;4.97;;;5.20;77.70;;;;;;5054087;28;20446;-56
2022/03/06 12:23:09;;;;;;;4.87;4.47;;;5.30;76.50;;;;;;5054135;28;20435;-51
2022/03/06 12:25:38;;;;;;;3.93;3.60;;;5.30;74.80;;;;;;5052076;28;20484;-53
2022/03/06 12:28:36;;;;;;;5.23;3.50;;;5.30;74.30;;;;;;5053233;28;20444;-54
2022/03/06 12:31:35;;;;;;;3.40;3.10;;;5.30;74.40;;;;;;5053551;28;20447;-54
2022/03/06 12:34:26;;;;;;;4.53;3.13;;;5.30;74.80;;;;;;5053566;28;20453;-55
2022/03/06 12:36:56;;;;;;;4.97;2.70;;;5.30;73.90;;;;;;5053315;28;20455;-55
2022/03/06 12:39:23;;;;;;;3.00;2.70;;;5.30;74.20;;;;;;5053852;28;20448;-54
2022/03/06 12:41:52;;;;;;;3.57;2.70;;;5.20;75.10;;;;;;5053988;28;20441;-52
2022/03/06 12:44:26;;;;;;;3.97;2.23;;;5.20;75.50;;;;;;5053901;28;20459;-56
2022/03/06 12:46:52;;;;;;;2.40;1.90;;;5.20;75.70;;;;;;5053765;28;20476;-57
2022/03/06 12:49:23;;;;;;;3.60;2.07;;;5.20;75.70;;;;;;5053776;28;20449;-58
2022/03/06 12:51:53;;;;;;;2.23;1.80;;;5.20;75.50;;;;;;5053914;28;20458;-57
2022/03/06 12:54:23;;;;;;;2.80;1.90;;;5.20;76.30;;;;;;5054096;28;20458;-56
2022/03/06 12:56:54;;;;;;;3.17;2.57;;;5.20;77.60;;;;;;5053441;28;20470;-49
2022/03/06 12:59:23;;;;;;;4.37;2.37;;;5.20;78.20;;;;;;5053941;28;20471;-53
2022/03/06 13:01:50;;;;;;;3.80;2.10;;;5.20;77.80;;;;;;5055065;28;20460;-56